Time;durP1;ratioP1;P1;durP2;ratioP2;P2;SDS_P1;SDS_P2;PMS_P1;PMS_P2;Temp;Humidity;BMP_temperature;BMP_pressure;BME280_temperature;BME280_humidity;BME280_pressure;Samples;Min_cycle;Max_cycle;Signal;HPM_P1;HPM_P2
2021/08/01 00:00:30;;;;;;;22.50;8.10;;;14.30;99.90;;;;;;5073406;28;20111;-83
2021/08/01 00:02:56;;;;;;;12.18;5.43;;;14.30;99.90;;;;;;5091313;28;20050;-82
2021/08/01 00:05:22;;;;;;;31.85;7.80;;;14.20;99.90;;;;;;5089963;28;20399;-82
2021/08/01 00:07:48;;;;;;;17.33;5.45;;;14.30;99.90;;;;;;5053185;28;20508;-83
2021/08/01 00:10:14;;;;;;;14.93;5.90;;;14.30;99.90;;;;;;5071077;28;20139;-82
2021/08/01 00:12:42;;;;;;;12.68;4.78;;;14.30;99.90;;;;;;5052949;28;20052;-83
2021/08/01 00:15:09;;;;;;;15.55;4.90;;;14.30;99.90;;;;;;5071144;28;20100;-83
2021/08/01 00:17:35;;;;;;;15.63;5.80;;;14.30;99.90;;;;;;5087541;28;20035;-83
2021/08/01 00:20:01;;;;;;;16.15;5.15;;;14.30;99.90;;;;;;5073210;28;20028;-83
2021/08/01 00:22:26;;;;;;;17.63;5.80;;;14.30;99.90;;;;;;5072980;28;20035;-83
2021/08/01 00:24:52;;;;;;;24.67;6.20;;;14.40;99.90;;;;;;5073105;28;20075;-83
2021/08/01 00:27:17;;;;;;;21.05;6.38;;;14.40;99.90;;;;;;5063157;28;20059;-83
2021/08/01 00:29:43;;;;;;;13.25;5.32;;;14.30;99.90;;;;;;5074596;28;20028;-83
2021/08/01 00:32:08;;;;;;;15.50;5.40;;;14.30;99.90;;;;;;5074477;28;20031;-83
2021/08/01 00:34:34;;;;;;;13.25;4.75;;;14.30;99.90;;;;;;5056596;28;20397;-83
2021/08/01 00:37:00;;;;;;;16.65;4.95;;;14.40;99.90;;;;;;5080249;28;20052;-83
2021/08/01 00:39:28;;;;;;;19.38;5.55;;;14.30;99.90;;;;;;5094691;28;20063;-83
2021/08/01 00:41:54;;;;;;;10.98;4.63;;;14.40;99.90;;;;;;5094495;28;20066;-83
2021/08/01 00:44:20;;;;;;;14.38;5.07;;;14.40;99.90;;;;;;5094723;28;20101;-83
2021/08/01 00:46:45;;;;;;;8.63;4.78;;;14.40;99.90;;;;;;5074859;28;20476;-83
2021/08/01 00:49:11;;;;;;;13.27;4.85;;;14.40;99.90;;;;;;5074323;28;20024;-83
2021/08/01 00:51:37;;;;;;;11.88;4.60;;;14.50;99.90;;;;;;5074002;28;20032;-82
2021/08/01 00:54:04;;;;;;;13.75;4.45;;;14.40;99.90;;;;;;5074166;28;20020;-83
2021/08/01 00:56:30;;;;;;;12.27;5.43;;;14.50;99.90;;;;;;5074138;28;20025;-83
2021/08/01 00:58:56;;;;;;;16.38;5.57;;;14.50;99.90;;;;;;5090327;28;20032;-83
2021/08/01 01:01:29;;;;;;;17.33;5.20;;;14.50;99.90;;;;;;5094166;28;20024;-83
2021/08/01 01:04:16;;;;;;;8.68;3.90;;;14.50;99.90;;;;;;5094285;28;20032;-83
2021/08/01 01:06:57;;;;;;;19.65;5.60;;;14.50;99.90;;;;;;5094097;28;20039;-83
2021/08/01 01:09:56;;;;;;;8.90;4.03;;;14.50;99.90;;;;;;5093614;28;20103;-82
2021/08/01 01:12:29;;;;;;;11.77;4.18;;;14.50;99.90;;;;;;5093445;28;20020;-83
2021/08/01 01:14:56;;;;;;;14.07;3.78;;;14.60;99.90;;;;;;5076074;28;20020;-83
2021/08/01 01:17:28;;;;;;;16.45;3.53;;;14.60;99.90;;;;;;5093932;28;20020;-83
2021/08/01 01:20:09;;;;;;;10.18;3.00;;;14.70;99.90;;;;;;5059263;28;20500;-83
2021/08/01 01:23:05;;;;;;;11.63;2.97;;;14.60;99.90;;;;;;5075591;28;20050;-83
2021/08/01 01:25:54;;;;;;;10.88;3.25;;;14.60;99.90;;;;;;5093768;28;20375;-83
2021/08/01 01:28:30;;;;;;;13.23;3.45;;;14.60;99.90;;;;;;5077197;28;20131;-83
2021/08/01 01:31:13;;;;;;;10.48;3.08;;;14.60;99.90;;;;;;5056041;28;20024;-83
2021/08/01 01:34:02;;;;;;;15.80;3.45;;;14.60;99.90;;;;;;5055510;28;20059;-84
2021/08/01 01:36:29;;;;;;;11.73;4.45;;;14.60;99.90;;;;;;5059076;28;20035;-83
2021/08/01 01:38:56;;;;;;;10.25;2.92;;;14.60;99.90;;;;;;5058504;28;20024;-83
2021/08/01 01:41:24;;;;;;;12.55;3.00;;;14.60;99.90;;;;;;5093325;28;20054;-83
2021/08/01 01:43:52;;;;;;;10.93;3.95;;;14.60;99.90;;;;;;5091738;28;20066;-83
2021/08/01 01:46:18;;;;;;;17.95;4.53;;;14.70;99.90;;;;;;5093291;28;20666;-84
2021/08/01 01:48:44;;;;;;;9.80;4.00;;;14.70;99.90;;;;;;5092869;28;20131;-83
2021/08/01 01:51:12;;;;;;;14.65;3.58;;;14.70;99.90;;;;;;5072919;28;20039;-83
2021/08/01 01:53:38;;;;;;;13.25;4.10;;;14.70;99.90;;;;;;5055002;28;20113;-83
2021/08/01 01:56:07;;;;;;;14.18;3.20;;;14.70;99.90;;;;;;5072977;28;20080;-82
2021/08/01 01:58:34;;;;;;;15.57;4.07;;;14.80;99.90;;;;;;5072902;28;20021;-82
2021/08/01 02:01:00;;;;;;;14.70;3.97;;;14.80;99.90;;;;;;5088817;28;20024;-82
2021/08/01 02:03:26;;;;;;;14.93;3.60;;;14.70;99.90;;;;;;5074812;28;20020;-82
2021/08/01 02:05:52;;;;;;;17.00;3.03;;;14.60;99.90;;;;;;5092858;28;20024;-82
2021/08/01 02:08:18;;;;;;;14.57;4.47;;;14.60;99.90;;;;;;5093038;28;20473;-82
2021/08/01 02:11:11;;;;;;;9.88;3.35;;;14.60;99.90;;;;;;5063500;28;20402;-82
2021/08/01 02:13:52;;;;;;;7.47;2.40;;;14.60;99.90;;;;;;5069110;28;20032;-83
2021/08/01 02:16:20;;;;;;;11.60;3.55;;;14.60;99.90;;;;;;5054459;28;20473;-82
2021/08/01 02:18:51;;;;;;;17.77;3.03;;;14.60;99.90;;;;;;5054624;28;20035;-82
2021/08/01 02:21:20;;;;;;;12.10;3.45;;;14.50;99.90;;;;;;5084693;28;20078;-82
2021/08/01 02:23:48;;;;;;;9.48;2.22;;;14.60;99.90;;;;;;5092731;28;20051;-82
2021/08/01 02:26:16;;;;;;;16.77;3.03;;;14.60;99.90;;;;;;5074570;28;20028;-83
2021/08/01 02:28:44;;;;;;;11.20;3.20;;;14.60;99.90;;;;;;5092537;28;20020;-82
2021/08/01 02:31:11;;;;;;;13.75;2.80;;;14.60;99.90;;;;;;5088497;28;20019;-83
2021/08/01 02:33:38;;;;;;;5.90;2.15;;;14.50;99.90;;;;;;5092521;28;20038;-82
2021/08/01 02:36:07;;;;;;;10.18;3.20;;;14.60;99.90;;;;;;5092453;28;20028;-83
2021/08/01 02:38:35;;;;;;;12.52;2.65;;;14.60;99.90;;;;;;5074291;28;20027;-83
2021/08/01 02:41:45;;;;;;;15.07;2.80;;;14.60;99.90;;;;;;5069451;28;20016;-83
2021/08/01 02:44:26;;;;;;;19.33;2.33;;;14.70;99.90;;;;;;5027481;28;20036;-83
2021/08/01 02:46:53;;;;;;;12.05;2.83;;;14.70;99.90;;;;;;5072046;28;20017;-83
2021/08/01 02:49:22;;;;;;;12.98;2.35;;;14.80;99.90;;;;;;5071759;28;20067;-82
2021/08/01 02:51:53;;;;;;;15.10;2.70;;;14.80;99.90;;;;;;5061520;28;20025;-83
2021/08/01 02:54:22;;;;;;;7.25;1.70;;;14.70;99.90;;;;;;5092267;28;20391;-83
2021/08/01 02:56:48;;;;;;;12.80;2.10;;;14.70;99.90;;;;;;5092177;28;20028;-83
2021/08/01 02:59:15;;;;;;;5.45;1.83;;;14.70;99.90;;;;;;5074097;28;20024;-83
2021/08/01 03:01:42;;;;;;;12.93;1.88;;;14.70;99.90;;;;;;5087378;28;20024;-83
2021/08/01 03:04:08;;;;;;;14.32;2.28;;;14.70;99.90;;;;;;5053934;28;20020;-83
2021/08/01 03:06:35;;;;;;;15.98;2.53;;;14.70;99.90;;;;;;5071728;28;20029;-83
2021/08/01 03:09:02;;;;;;;14.00;1.88;;;14.70;99.90;;;;;;5071483;28;20035;-83
2021/08/01 03:11:32;;;;;;;7.30;2.38;;;14.70;99.90;;;;;;5071695;28;20028;-84
2021/08/01 03:13:58;;;;;;;10.15;1.95;;;14.70;99.90;;;;;;5071854;28;20035;-83
2021/08/01 03:16:24;;;;;;;10.35;2.25;;;14.60;99.90;;;;;;5071733;28;20033;-83
2021/08/01 03:18:49;;;;;;;7.63;1.88;;;14.70;99.90;;;;;;5053771;28;20070;-82
2021/08/01 03:21:15;;;;;;;13.43;2.30;;;14.70;99.90;;;;;;5053545;28;20442;-82
2021/08/01 03:23:40;;;;;;;8.18;2.10;;;14.70;99.90;;;;;;5054419;28;20054;-83
2021/08/01 03:26:06;;;;;;;8.82;2.05;;;14.70;99.90;;;;;;5063134;28;20032;-83
2021/08/01 03:28:32;;;;;;;10.77;2.05;;;14.70;99.90;;;;;;5073679;28;20032;-83
2021/08/01 03:30:57;;;;;;;7.65;1.95;;;14.70;99.90;;;;;;5091770;28;20029;-83
2021/08/01 03:33:23;;;;;;;13.38;2.15;;;14.70;99.90;;;;;;5081689;28;20029;-83
2021/08/01 03:35:48;;;;;;;7.20;1.77;;;14.70;99.90;;;;;;5071465;28;20025;-83
2021/08/01 03:38:15;;;;;;;23.83;2.60;;;14.80;99.90;;;;;;5071494;28;20032;-83
2021/08/01 03:40:41;;;;;;;17.70;2.75;;;14.80;99.90;;;;;;5071562;28;20074;-83
2021/08/01 03:43:07;;;;;;;10.10;2.55;;;14.80;99.90;;;;;;5075589;28;20028;-84
2021/08/01 03:45:33;;;;;;;14.10;2.05;;;14.70;99.90;;;;;;5091682;28;20096;-83
2021/08/01 03:47:58;;;;;;;9.20;1.80;;;14.90;99.90;;;;;;5073474;28;20122;-83
2021/08/01 03:50:24;;;;;;;12.20;2.50;;;14.90;99.90;;;;;;5091494;28;20107;-83
2021/08/01 03:52:49;;;;;;;11.95;1.60;;;14.90;99.90;;;;;;5091366;28;20051;-83
2021/08/01 03:55:15;;;;;;;7.60;2.45;;;14.90;99.90;;;;;;5071920;28;20021;-83
2021/08/01 03:57:40;;;;;;;7.18;1.58;;;14.90;99.90;;;;;;5071349;28;20545;-83
2021/08/01 04:00:07;;;;;;;5.75;1.88;;;14.90;99.90;;;;;;5071379;28;20037;-84
2021/08/01 04:02:38;;;;;;;12.52;2.10;;;14.90;99.90;;;;;;5073351;28;20063;-83
2021/08/01 04:05:05;;;;;;;17.42;2.15;;;15.00;99.90;;;;;;5089837;28;20028;-83
2021/08/01 04:07:31;;;;;;;12.95;2.33;;;15.00;99.90;;;;;;5077161;28;20028;-83
2021/08/01 04:09:57;;;;;;;12.20;2.38;;;15.00;99.90;;;;;;5095265;28;20129;-83
2021/08/01 04:12:22;;;;;;;8.68;1.63;;;15.00;99.90;;;;;;5095111;28;20076;-82
2021/08/01 04:14:48;;;;;;;11.77;2.38;;;15.00;99.90;;;;;;5077294;28;20025;-83
2021/08/01 04:17:18;;;;;;;8.70;1.83;;;15.10;99.90;;;;;;5056931;28;20079;-82
2021/08/01 04:19:46;;;;;;;13.98;2.05;;;15.10;99.90;;;;;;5074739;28;20020;-83
2021/08/01 04:22:14;;;;;;;9.10;2.03;;;15.10;99.90;;;;;;5074810;28;20492;-82
2021/08/01 04:24:40;;;;;;;10.80;1.60;;;15.10;99.90;;;;;;5074933;28;20044;-83
2021/08/01 04:27:06;;;;;;;8.98;2.10;;;15.10;99.90;;;;;;5074595;28;20169;-82
2021/08/01 04:29:32;;;;;;;9.50;2.03;;;15.00;99.90;;;;;;5074613;28;20025;-83
2021/08/01 04:31:58;;;;;;;11.13;2.33;;;15.00;99.90;;;;;;5056538;28;20032;-83
2021/08/01 04:34:23;;;;;;;8.35;1.75;;;15.00;99.90;;;;;;5083063;28;20361;-83
2021/08/01 04:36:49;;;;;;;4.85;1.75;;;15.00;99.90;;;;;;5094755;28;20073;-83
2021/08/01 04:39:15;;;;;;;11.45;2.53;;;14.90;99.90;;;;;;5094855;28;20035;-83
2021/08/01 04:41:41;;;;;;;8.48;2.17;;;15.00;99.90;;;;;;5094522;28;20108;-83
2021/08/01 04:44:07;;;;;;;7.60;2.33;;;15.00;99.90;;;;;;5091310;28;20032;-83
2021/08/01 04:46:33;;;;;;;15.25;2.22;;;15.00;99.90;;;;;;5093440;28;20031;-83
2021/08/01 04:48:59;;;;;;;7.35;1.80;;;14.90;99.90;;;;;;5094388;28;20024;-84
2021/08/01 04:51:24;;;;;;;10.13;2.10;;;15.00;99.90;;;;;;5076211;28;20119;-83
2021/08/01 04:53:50;;;;;;;5.47;1.90;;;15.00;99.90;;;;;;5094457;28;20113;-83
2021/08/01 04:56:16;;;;;;;12.57;2.53;;;15.00;99.90;;;;;;5075953;28;20504;-82
2021/08/01 04:58:41;;;;;;;7.25;1.77;;;15.00;99.90;;;;;;5074224;28;20039;-82
2021/08/01 05:01:15;;;;;;;6.57;2.08;;;15.10;99.90;;;;;;5074100;28;20108;-82
2021/08/01 05:03:41;;;;;;;11.48;2.08;;;15.20;99.90;;;;;;5073995;28;20032;-82
2021/08/01 05:06:07;;;;;;;8.18;2.38;;;15.30;99.90;;;;;;5069429;28;20392;-83
2021/08/01 05:08:32;;;;;;;5.28;1.77;;;15.40;99.90;;;;;;5094173;28;20503;-82
2021/08/01 05:10:58;;;;;;;16.20;2.08;;;15.50;99.90;;;;;;5094317;28;20020;-83
2021/08/01 05:13:23;;;;;;;9.43;2.53;;;15.60;99.90;;;;;;5093749;28;20380;-83
2021/08/01 05:15:49;;;;;;;7.68;3.40;;;15.70;99.90;;;;;;5085119;28;20099;-83
2021/08/01 05:18:15;;;;;;;7.97;2.00;;;15.70;99.90;;;;;;5055656;28;20075;-83
2021/08/01 05:20:44;;;;;;;13.70;2.47;;;15.60;99.90;;;;;;5073825;28;20056;-83
2021/08/01 05:23:10;;;;;;;10.85;2.20;;;15.60;99.90;;;;;;5073480;28;20055;-83
2021/08/01 05:25:36;;;;;;;11.15;2.47;;;15.70;99.90;;;;;;5077160;28;20036;-83
2021/08/01 05:28:02;;;;;;;7.82;2.40;;;15.80;99.90;;;;;;5093737;28;20027;-83
2021/08/01 05:30:28;;;;;;;10.13;2.28;;;15.70;99.90;;;;;;5093670;28;20111;-83
2021/08/01 05:32:53;;;;;;;9.18;2.42;;;15.70;99.90;;;;;;5093552;28;20031;-83
2021/08/01 05:35:19;;;;;;;17.33;3.13;;;15.70;99.90;;;;;;5075594;28;20016;-83
2021/08/01 05:37:44;;;;;;;9.30;2.10;;;15.70;99.90;;;;;;5074487;28;20476;-82
2021/08/01 05:40:11;;;;;;;9.73;2.45;;;15.70;99.90;;;;;;5073377;28;20051;-82
2021/08/01 05:42:37;;;;;;;14.85;3.08;;;15.70;99.90;;;;;;5073294;28;20023;-83
2021/08/01 05:45:04;;;;;;;11.38;2.50;;;15.50;99.90;;;;;;5073158;28;20039;-83
2021/08/01 05:47:30;;;;;;;22.17;3.47;;;15.30;99.90;;;;;;5073593;28;20047;-82
2021/08/01 05:49:55;;;;;;;5.78;2.50;;;15.20;99.90;;;;;;5073118;28;20028;-85
2021/08/01 05:52:21;;;;;;;9.80;3.28;;;15.10;99.90;;;;;;5072931;28;20044;-83
2021/08/01 05:54:47;;;;;;;13.52;3.47;;;15.00;99.90;;;;;;5073058;28;20052;-82
2021/08/01 05:57:12;;;;;;;7.13;2.85;;;15.00;99.90;;;;;;5081026;28;20507;-82
2021/08/01 05:59:38;;;;;;;9.15;2.67;;;15.00;99.90;;;;;;5093158;28;20396;-82
2021/08/01 06:02:03;;;;;;;9.20;2.47;;;15.00;99.90;;;;;;5090546;28;20518;-83
2021/08/01 06:04:29;;;;;;;14.52;2.80;;;15.10;99.90;;;;;;5074669;28;20028;-82
2021/08/01 06:06:54;;;;;;;9.38;2.67;;;15.20;99.90;;;;;;5092070;28;20043;-82
2021/08/01 06:09:20;;;;;;;14.40;2.78;;;15.20;99.90;;;;;;5092804;28;20035;-82
2021/08/01 06:11:45;;;;;;;10.95;2.88;;;15.20;99.90;;;;;;5074536;28;20017;-83
2021/08/01 06:14:11;;;;;;;10.70;2.88;;;15.30;99.90;;;;;;5092602;28;20020;-83
2021/08/01 06:16:36;;;;;;;10.60;2.30;;;15.40;99.90;;;;;;5092617;28;20024;-82
2021/08/01 06:19:02;;;;;;;10.57;2.90;;;15.70;99.90;;;;;;5056686;28;20396;-83
2021/08/01 06:21:29;;;;;;;6.75;2.40;;;15.60;99.90;;;;;;5072220;28;20029;-83
2021/08/01 06:23:55;;;;;;;16.08;2.80;;;15.90;99.90;;;;;;5054080;28;20036;-83
2021/08/01 06:26:22;;;;;;;8.48;2.50;;;15.90;99.90;;;;;;5072176;28;20032;-83
2021/08/01 06:28:48;;;;;;;13.00;2.75;;;16.10;99.90;;;;;;5066649;28;20066;-83
2021/08/01 06:31:14;;;;;;;11.80;2.42;;;16.30;99.90;;;;;;5092215;28;20700;-83
2021/08/01 06:33:40;;;;;;;10.80;2.70;;;16.40;99.90;;;;;;5092460;28;20103;-83
2021/08/01 06:36:08;;;;;;;8.45;2.88;;;16.50;99.90;;;;;;5092343;28;20476;-82
2021/08/01 06:38:35;;;;;;;10.25;2.97;;;16.60;99.90;;;;;;5084282;28;20366;-82
2021/08/01 06:41:00;;;;;;;9.07;2.63;;;16.70;99.90;;;;;;5072000;28;20020;-82
2021/08/01 06:43:26;;;;;;;13.70;2.22;;;16.90;99.90;;;;;;5071720;28;20384;-83
2021/08/01 06:45:51;;;;;;;5.97;2.53;;;16.90;99.90;;;;;;5054121;28;20540;-82
2021/08/01 06:48:17;;;;;;;13.30;2.72;;;17.00;99.90;;;;;;5074428;28;20048;-83
2021/08/01 06:50:43;;;;;;;8.80;2.22;;;17.00;99.90;;;;;;5092248;28;20631;-83
2021/08/01 06:53:08;;;;;;;9.98;2.80;;;17.10;99.90;;;;;;5075617;28;20046;-83
2021/08/01 06:55:34;;;;;;;23.13;2.70;;;17.10;99.90;;;;;;5075880;28;20370;-82
2021/08/01 06:57:59;;;;;;;9.35;2.38;;;17.10;99.90;;;;;;5091976;28;20077;-82
2021/08/01 07:00:25;;;;;;;8.85;2.70;;;17.10;99.90;;;;;;5092012;28;20063;-82
2021/08/01 07:02:55;;;;;;;11.38;2.95;;;17.20;99.90;;;;;;5091869;28;20040;-82
2021/08/01 07:05:21;;;;;;;11.80;2.78;;;17.30;99.90;;;;;;5091907;28;20124;-83
2021/08/01 07:07:47;;;;;;;14.55;3.00;;;17.40;99.90;;;;;;5070034;28;20029;-82
2021/08/01 07:10:13;;;;;;;9.80;3.40;;;17.50;99.90;;;;;;5068037;28;20032;-82
2021/08/01 07:12:41;;;;;;;11.60;3.72;;;17.60;99.90;;;;;;5073102;28;20103;-84
2021/08/01 07:15:09;;;;;;;8.90;2.92;;;17.80;99.90;;;;;;5075422;28;20016;-83
2021/08/01 07:17:35;;;;;;;10.65;2.83;;;17.90;99.90;;;;;;5078591;28;20020;-81
2021/08/01 07:20:02;;;;;;;13.25;2.88;;;17.80;99.90;;;;;;5080383;28;20050;-81
2021/08/01 07:22:28;;;;;;;12.93;3.08;;;17.70;99.90;;;;;;5085309;28;20020;-82
2021/08/01 07:24:53;;;;;;;12.27;3.17;;;17.60;99.90;;;;;;5076381;28;20043;-83
2021/08/01 07:27:19;;;;;;;8.70;2.17;;;17.60;99.90;;;;;;5068126;28;20020;-81
2021/08/01 07:29:44;;;;;;;9.38;2.63;;;17.80;99.90;;;;;;5072336;28;20031;-82
2021/08/01 07:32:10;;;;;;;7.63;2.38;;;17.80;99.90;;;;;;5054532;28;20036;-84
2021/08/01 07:34:35;;;;;;;11.77;2.72;;;18.00;99.90;;;;;;5069472;28;20050;-81
2021/08/01 07:37:01;;;;;;;8.90;2.20;;;18.00;99.90;;;;;;5068649;28;20096;-82
2021/08/01 07:39:27;;;;;;;10.88;2.20;;;18.00;99.90;;;;;;5076433;28;20042;-81
2021/08/01 07:41:52;;;;;;;14.93;2.92;;;17.90;99.90;;;;;;5089115;28;20028;-83
2021/08/01 07:44:18;;;;;;;13.85;2.65;;;18.10;99.90;;;;;;5095752;28;20028;-82
2021/08/01 07:46:43;;;;;;;10.05;2.80;;;18.20;99.90;;;;;;5095602;28;20027;-82
2021/08/01 07:49:09;;;;;;;8.60;2.42;;;18.50;99.90;;;;;;5095591;28;20032;-83
2021/08/01 07:51:34;;;;;;;5.22;2.08;;;18.50;99.90;;;;;;5094648;28;20032;-83
2021/08/01 07:54:00;;;;;;;8.77;2.08;;;18.40;99.90;;;;;;5095529;28;20028;-81
2021/08/01 07:56:25;;;;;;;7.65;1.60;;;18.70;99.90;;;;;;5095400;28;20021;-82
2021/08/01 07:58:51;;;;;;;4.72;1.92;;;18.70;99.90;;;;;;5095414;28;20016;-83
2021/08/01 08:01:16;;;;;;;11.07;2.05;;;18.60;99.90;;;;;;5077079;28;20546;-84
2021/08/01 08:03:42;;;;;;;9.48;1.92;;;18.50;99.90;;;;;;5061708;28;20392;-80
2021/08/01 08:06:08;;;;;;;12.20;2.25;;;18.40;99.90;;;;;;5095300;28;20016;-81
2021/08/01 08:08:34;;;;;;;24.70;3.75;;;18.50;99.90;;;;;;5095326;28;20024;-80
2021/08/01 08:10:59;;;;;;;9.43;1.60;;;18.90;99.90;;;;;;5076974;28;20024;-80
2021/08/01 08:13:25;;;;;;;9.00;1.83;;;19.00;99.90;;;;;;5094935;28;20024;-80
2021/08/01 08:15:50;;;;;;;9.43;1.83;;;19.00;99.90;;;;;;5077262;28;20039;-82
2021/08/01 08:18:16;;;;;;;10.43;1.88;;;19.30;99.90;;;;;;5056895;28;20438;-83
2021/08/01 08:20:42;;;;;;;9.15;2.13;;;19.40;99.90;;;;;;5074820;28;20503;-81
2021/08/01 08:23:08;;;;;;;12.07;2.40;;;19.20;99.90;;;;;;5056687;28;20032;-80
2021/08/01 08:25:34;;;;;;;13.30;2.33;;;18.80;99.90;;;;;;5086483;28;20036;-81
2021/08/01 08:28:00;;;;;;;9.57;1.73;;;18.50;99.90;;;;;;5087338;28;20040;-83
2021/08/01 08:30:26;;;;;;;7.22;1.70;;;18.50;99.90;;;;;;5074623;28;20059;-83
2021/08/01 08:32:51;;;;;;;6.28;2.00;;;18.80;99.90;;;;;;5074333;28;20761;-83
2021/08/01 08:35:17;;;;;;;11.93;2.13;;;19.10;99.90;;;;;;5063236;28;20016;-83
2021/08/01 08:37:44;;;;;;;10.52;2.50;;;19.20;99.90;;;;;;5088075;28;20039;-89
2021/08/01 08:40:11;;;;;;;4.47;1.67;;;19.40;99.90;;;;;;5074818;28;20504;-86
2021/08/01 08:42:37;;;;;;;5.30;2.03;;;19.60;99.90;;;;;;5056284;28;20025;-86
2021/08/01 08:45:04;;;;;;;11.50;2.53;;;19.70;99.90;;;;;;5056481;28;20029;-90
2021/08/01 08:47:36;;;;;;;10.10;2.58;;;19.70;99.90;;;;;;5056403;28;20031;-85
2021/08/01 08:50:03;;;;;;;9.13;2.08;;;20.00;99.90;;;;;;5094595;28;20560;-89
2021/08/01 08:52:30;;;;;;;10.40;2.13;;;19.70;99.90;;;;;;5094777;28;20024;-88
2021/08/01 08:54:59;;;;;;;9.20;2.13;;;19.40;99.90;;;;;;5076278;28;20061;-86
2021/08/01 08:57:30;;;;;;;11.75;1.85;;;19.30;99.90;;;;;;5094365;28;20019;-88
2021/08/01 09:00:07;;;;;;;7.25;1.92;;;19.30;99.90;;;;;;5057828;28;20028;-89
2021/08/01 09:02:36;;;;;;;9.43;1.92;;;19.30;99.90;;;;;;5073795;28;20435;-87
2021/08/01 09:05:04;;;;;;;7.05;1.88;;;19.50;99.90;;;;;;5074039;28;20549;-88
2021/08/01 09:07:30;;;;;;;10.18;1.70;;;19.50;99.90;;;;;;5055927;28;20032;-89
2021/08/01 09:09:56;;;;;;;8.68;2.97;;;19.50;99.90;;;;;;5071029;28;20499;-90
2021/08/01 09:12:21;;;;;;;11.63;1.90;;;19.20;99.90;;;;;;5094016;28;20056;-90
2021/08/01 09:14:47;;;;;;;10.45;2.08;;;19.10;99.90;;;;;;5094255;28;20024;-87
2021/08/01 09:17:32;;;;;;;11.38;3.33;;;19.00;99.90;;;;;;5094353;28;20024;-89
2021/08/01 09:20:12;;;;;;;5.60;1.83;;;18.90;99.90;;;;;;5088581;28;20024;-88
2021/08/01 09:22:38;;;;;;;4.18;1.40;;;18.70;99.90;;;;;;5057250;28;20020;-90
2021/08/01 09:25:18;;;;;;;15.82;2.05;;;18.70;99.90;;;;;;5075887;28;20036;-90
2021/08/01 09:27:44;;;;;;;11.15;1.88;;;18.60;99.90;;;;;;5073664;28;20055;-89
2021/08/01 09:30:10;;;;;;;8.75;1.80;;;18.50;99.90;;;;;;5055710;28;20028;-88
2021/08/01 09:32:48;;;;;;;11.63;1.98;;;18.40;99.90;;;;;;5073457;28;20389;-91
2021/08/01 09:35:18;;;;;;;8.73;1.60;;;18.30;99.90;;;;;;5063448;28;20530;-88
2021/08/01 09:37:54;;;;;;;10.65;1.50;;;18.50;99.90;;;;;;5074650;28;20028;-92
2021/08/01 09:40:20;;;;;;;12.95;1.92;;;18.30;99.90;;;;;;5093353;28;20047;-89
2021/08/01 09:42:47;;;;;;;13.45;1.60;;;18.10;99.90;;;;;;5074638;28;20549;-90
2021/08/01 09:45:14;;;;;;;7.63;1.95;;;18.10;99.90;;;;;;5075808;28;20027;-91
2021/08/01 09:47:39;;;;;;;12.32;1.67;;;18.10;99.90;;;;;;5073871;28;20034;-90
2021/08/01 09:50:06;;;;;;;8.65;1.40;;;18.30;99.90;;;;;;5075376;28;20024;-90
2021/08/01 09:52:32;;;;;;;7.00;1.73;;;18.10;99.90;;;;;;5093142;28;20085;-89
2021/08/01 09:54:58;;;;;;;4.38;1.30;;;18.20;99.90;;;;;;5093323;28;20028;-87
2021/08/01 09:57:23;;;;;;;11.35;1.92;;;18.00;99.90;;;;;;5093109;28;20042;-89
2021/08/01 10:00:03;;;;;;;10.57;2.58;;;18.00;99.90;;;;;;5072396;28;20032;-88
2021/08/01 10:02:37;;;;;;;9.38;1.70;;;17.90;99.90;;;;;;5072675;28;20021;-89
2021/08/01 10:05:24;;;;;;;4.18;1.13;;;17.90;99.90;;;;;;5073042;28;20027;-90
2021/08/01 10:07:51;;;;;;;7.35;2.20;;;17.90;99.90;;;;;;5073049;28;20021;-91
2021/08/01 10:10:22;;;;;;;6.05;1.85;;;17.90;99.90;;;;;;5093110;28;20028;-89
2021/08/01 10:12:49;;;;;;;22.38;1.98;;;17.70;99.90;;;;;;5093334;28;20024;-90
2021/08/01 10:15:16;;;;;;;7.07;2.00;;;17.70;99.90;;;;;;5093185;28;20016;-88
2021/08/01 10:17:41;;;;;;;4.03;1.30;;;17.70;99.90;;;;;;5092949;28;20492;-90
2021/08/01 10:20:07;;;;;;;18.38;2.78;;;17.60;99.90;;;;;;5081413;28;20066;-88
2021/08/01 10:22:36;;;;;;;9.90;1.92;;;17.80;99.90;;;;;;5092722;28;20024;-90
2021/08/01 10:25:10;;;;;;;10.90;1.58;;;17.80;99.90;;;;;;5074451;28;20059;-89
2021/08/01 10:27:39;;;;;;;14.18;1.45;;;18.10;99.90;;;;;;5074742;28;20062;-86
2021/08/01 10:30:06;;;;;;;9.57;1.80;;;18.20;99.90;;;;;;5060979;28;20056;-89
2021/08/01 10:32:36;;;;;;;9.00;1.60;;;18.40;99.90;;;;;;5072011;28;20017;-89
2021/08/01 10:35:06;;;;;;;8.35;1.75;;;18.60;99.90;;;;;;5072327;28;20020;-88
2021/08/01 10:37:39;;;;;;;11.60;1.63;;;18.90;99.90;;;;;;5072304;28;20027;-90
2021/08/01 10:40:07;;;;;;;8.23;1.45;;;19.10;99.90;;;;;;5072648;28;20162;-90
2021/08/01 10:42:37;;;;;;;8.45;1.55;;;19.30;99.90;;;;;;5072113;28;20099;-89
2021/08/01 10:45:04;;;;;;;5.45;1.33;;;19.50;99.90;;;;;;5072238;28;20024;-90
2021/08/01 10:47:32;;;;;;;4.18;1.42;;;19.80;99.90;;;;;;5069220;28;20024;-87
2021/08/01 10:50:00;;;;;;;4.88;2.17;;;19.90;99.90;;;;;;5054679;28;20033;-92
2021/08/01 10:52:30;;;;;;;5.90;1.65;;;19.70;99.90;;;;;;5053363;28;20025;-90
2021/08/01 10:55:04;;;;;;;8.68;1.77;;;19.40;99.90;;;;;;5071492;28;20047;-86
2021/08/01 10:57:30;;;;;;;8.00;1.33;;;19.20;99.90;;;;;;5071964;28;20052;-87
2021/08/01 10:59:57;;;;;;;4.70;1.20;;;19.00;99.90;;;;;;5075086;28;20503;-88
2021/08/01 11:02:25;;;;;;;3.90;1.52;;;19.00;99.90;;;;;;5074074;28;20161;-88
2021/08/01 11:04:51;;;;;;;3.63;1.77;;;18.90;99.90;;;;;;5092102;28;20492;-86
2021/08/01 11:07:26;;;;;;;8.70;1.70;;;18.70;99.90;;;;;;5091969;28;20028;-88
2021/08/01 11:10:07;;;;;;;4.82;1.08;;;18.90;99.90;;;;;;5091702;28;20028;-89
2021/08/01 11:12:42;;;;;;;14.30;2.97;;;19.20;99.90;;;;;;5053523;28;20108;-90
2021/08/01 11:15:10;;;;;;;5.60;1.38;;;19.30;99.90;;;;;;5055277;28;20412;-88
2021/08/01 11:17:51;;;;;;;7.93;2.00;;;19.30;99.90;;;;;;5071617;28;20023;-87
2021/08/01 11:20:19;;;;;;;7.18;1.83;;;19.10;99.90;;;;;;5053830;28;20025;-88
2021/08/01 11:22:45;;;;;;;8.18;2.15;;;19.00;99.90;;;;;;5091519;28;20401;-89
2021/08/01 11:25:28;;;;;;;8.85;1.50;;;18.80;99.90;;;;;;5073776;28;20036;-89
2021/08/01 11:28:28;;;;;;;8.35;1.85;;;19.00;99.90;;;;;;5091897;28;20031;-89
2021/08/01 11:30:57;;;;;;;4.22;1.45;;;18.90;99.90;;;;;;5054888;28;20043;-88
2021/08/01 11:33:43;;;;;;;5.50;1.55;;;18.80;99.90;;;;;;5060423;28;20024;-88
2021/08/01 11:36:17;;;;;;;6.25;1.55;;;19.00;99.90;;;;;;5071577;28;20028;-88
2021/08/01 11:38:50;;;;;;;7.75;1.48;;;19.40;99.90;;;;;;5071477;28;20532;-88
2021/08/01 11:41:33;;;;;;;5.05;1.08;;;19.80;99.90;;;;;;5073709;28;20024;-89
2021/08/01 11:44:06;;;;;;;3.20;1.65;;;20.00;99.90;;;;;;5053577;28;20028;-86
2021/08/01 11:46:59;;;;;;;6.93;1.80;;;19.90;99.90;;;;;;5071338;28;20024;-86
2021/08/01 11:49:24;;;;;;;8.20;2.50;;;20.10;99.90;;;;;;5071288;28;20052;-88
2021/08/01 11:51:51;;;;;;;17.77;2.28;;;20.40;99.90;;;;;;5075208;28;20043;-84
2021/08/01 11:54:18;;;;;;;4.20;1.75;;;20.30;99.90;;;;;;5085432;28;20491;-83
2021/08/01 11:56:45;;;;;;;11.07;1.80;;;19.90;99.90;;;;;;5053334;28;20025;-84
2021/08/01 11:59:15;;;;;;;6.85;1.65;;;20.10;99.90;;;;;;5069746;28;20020;-85
2021/08/01 12:01:41;;;;;;;8.25;1.38;;;20.20;99.90;;;;;;5075623;28;20032;-87
2021/08/01 12:04:08;;;;;;;6.63;1.27;;;20.20;99.90;;;;;;5058013;28;20035;-87
2021/08/01 12:06:38;;;;;;;8.10;1.67;;;20.10;99.90;;;;;;5076256;28;20039;-88
2021/08/01 12:09:23;;;;;;;14.35;2.42;;;20.10;99.90;;;;;;5076476;28;20036;-86
2021/08/01 12:11:51;;;;;;;5.38;1.50;;;20.10;99.90;;;;;;5052926;28;20377;-86
2021/08/01 12:14:17;;;;;;;9.10;1.80;;;19.90;99.90;;;;;;5073062;28;20112;-86
2021/08/01 12:17:02;;;;;;;3.72;1.38;;;19.30;99.90;;;;;;5059281;28;20103;-87
2021/08/01 12:19:37;;;;;;;3.78;1.50;;;19.00;99.90;;;;;;5051334;28;20107;-87
2021/08/01 12:22:13;;;;;;;10.63;2.05;;;18.90;99.90;;;;;;5068564;28;20055;-88
2021/08/01 12:24:46;;;;;;;6.47;1.83;;;18.90;99.90;;;;;;5081204;28;20104;-87
2021/08/01 12:27:17;;;;;;;6.25;1.98;;;19.20;99.90;;;;;;5079646;28;20519;-89
2021/08/01 12:29:54;;;;;;;7.10;1.50;;;19.40;99.90;;;;;;5081749;28;20036;-88
2021/08/01 12:32:39;;;;;;;7.18;1.50;;;19.60;99.90;;;;;;5073291;28;20455;-88
2021/08/01 12:35:16;;;;;;;4.72;1.15;;;20.20;99.90;;;;;;5056696;28;20050;-87
2021/08/01 12:37:49;;;;;;;3.22;1.50;;;20.40;99.90;;;;;;5087999;28;20149;-88
2021/08/01 12:40:38;;;;;;;5.80;1.33;;;20.30;99.90;;;;;;5076734;28;20539;-85
2021/08/01 12:43:09;;;;;;;6.05;1.10;;;19.80;99.90;;;;;;5076437;28;20035;-86
2021/08/01 12:45:45;;;;;;;3.78;1.25;;;19.70;99.90;;;;;;5076591;28;20028;-88
2021/08/01 12:48:20;;;;;;;7.10;1.92;;;19.60;99.90;;;;;;5079444;28;20037;-87